Time;durP1;ratioP1;P1;durP2;ratioP2;P2;SDS_P1;SDS_P2;PMS_P1;PMS_P2;Temp;Humidity;BMP_temperature;BMP_pressure;BME280_temperature;BME280_humidity;BME280_pressure;Samples;Min_cycle;Max_cycle;Signal;HPM_P1;HPM_P2
2023/08/26 00:00:28;;;;;;;17.30;7.70;;;;;;;-142.57;30.93;115900.28;4995214;28;20066;-80
2023/08/26 00:02:54;;;;;;;10.55;7.65;;;;;;;-142.57;31.06;115900.28;4995348;28;20519;-84
2023/08/26 00:05:20;;;;;;;8.68;7.03;;;;;;;-142.57;31.12;115900.28;4995644;28;20038;-77
2023/08/26 00:07:45;;;;;;;11.68;8.55;;;;;;;-142.57;31.33;115900.28;4995683;28;20376;-78
2023/08/26 00:10:11;;;;;;;8.60;7.47;;;;;;;-142.57;31.42;115900.28;4995272;28;20116;-78
2023/08/26 00:12:36;;;;;;;9.55;6.88;;;;;;;-142.57;31.26;115900.28;4995210;28;20030;-79
2023/08/26 00:15:03;;;;;;;8.30;7.00;;;;;;;-142.57;31.25;115900.28;4995782;28;20034;-81
2023/08/26 00:17:29;;;;;;;8.95;6.68;;;;;;;-142.57;31.23;115900.28;4995740;28;20030;-78
2023/08/26 00:19:55;;;;;;;12.77;7.43;;;;;;;-142.57;31.59;115900.28;4995334;28;20069;-78
2023/08/26 00:22:20;;;;;;;12.38;7.57;;;;;;;-142.57;30.99;115900.28;4993893;28;20043;-78
2023/08/26 00:24:47;;;;;;;12.93;6.60;;;;;;;-142.57;31.16;115900.28;4993917;28;20043;-79
2023/08/26 00:27:13;;;;;;;8.82;6.85;;;;;;;-142.57;31.48;115900.28;4994916;28;20040;-77
2023/08/26 00:29:40;;;;;;;8.93;6.90;;;;;;;-142.57;31.88;115900.28;4994037;28;20037;-77
2023/08/26 00:32:05;;;;;;;11.13;7.40;;;;;;;-142.57;31.46;115900.28;4995762;28;20042;-80
2023/08/26 00:34:32;;;;;;;13.13;6.70;;;;;;;-142.57;31.62;115900.28;4997237;28;20161;-78
2023/08/26 00:36:57;;;;;;;8.60;6.72;;;;;;;-142.57;31.40;115900.28;4997737;28;20053;-78
2023/08/26 00:39:23;;;;;;;11.63;6.72;;;;;;;-142.57;31.65;115900.28;4994817;28;20041;-77
2023/08/26 00:41:49;;;;;;;14.38;6.45;;;;;;;-142.57;31.59;115900.28;4993152;28;20365;-79
2023/08/26 00:44:14;;;;;;;10.70;6.93;;;;;;;-142.57;31.72;115900.28;4995152;28;20031;-78
2023/08/26 00:46:40;;;;;;;8.32;6.53;;;;;;;-142.57;31.86;115900.28;4994538;28;20440;-78
2023/08/26 00:49:06;;;;;;;15.20;7.05;;;;;;;-142.57;31.67;115900.28;4993618;28;20038;-77
2023/08/26 00:51:33;;;;;;;10.55;6.78;;;;;;;-142.57;31.79;115900.28;4993442;28;20057;-75
2023/08/26 00:53:59;;;;;;;7.68;6.18;;;;;;;-142.57;31.54;115900.28;4993457;28;20468;-80
2023/08/26 00:56:25;;;;;;;9.43;6.28;;;;;;;-142.57;31.56;115900.28;4993404;28;20193;-79
2023/08/26 00:58:51;;;;;;;10.65;6.68;;;;;;;-142.57;32.01;115900.28;4994857;28;20063;-81
2023/08/26 01:01:18;;;;;;;13.75;6.35;;;;;;;-142.57;31.59;115900.28;4994171;28;20038;-77
2023/08/26 01:03:44;;;;;;;11.93;6.80;;;;;;;-142.57;31.57;115900.28;4995512;28;20046;-77
2023/08/26 01:06:09;;;;;;;8.73;5.97;;;;;;;-142.57;31.55;115900.28;4995723;28;20510;-80
2023/08/26 01:08:37;;;;;;;13.32;6.15;;;;;;;-142.57;31.39;115900.28;4994853;28;20038;-81
2023/08/26 01:11:07;;;;;;;10.38;5.82;;;;;;;-142.57;31.36;115900.28;4996085;28;20030;-80
2023/08/26 01:14:07;;;;;;;13.63;6.47;;;;;;;-142.57;31.50;115900.28;4993466;28;20035;-81
2023/08/26 01:16:34;;;;;;;9.32;5.70;;;;;;;-142.57;31.32;115900.28;4995140;28;20049;-79
2023/08/26 01:19:02;;;;;;;10.55;6.95;;;;;;;-142.57;31.69;115900.28;4994612;28;20042;-78
2023/08/26 01:21:35;;;;;;;11.57;6.50;;;;;;;-142.57;31.55;115900.28;4994970;28;20049;-81
2023/08/26 01:24:02;;;;;;;12.23;6.35;;;;;;;-142.57;31.85;115900.28;4993495;28;20041;-81
2023/08/26 01:26:28;;;;;;;7.47;5.95;;;;;;;-142.57;31.74;115900.28;4993475;28;20109;-81
2023/08/26 01:28:53;;;;;;;11.98;6.43;;;;;;;-142.57;32.14;115900.28;4994268;28;20113;-79
2023/08/26 01:31:21;;;;;;;9.02;5.90;;;;;;;-142.57;32.28;115900.28;4992600;28;20027;-79
2023/08/26 01:34:12;;;;;;;11.27;5.88;;;;;;;-142.57;32.47;115900.28;4993161;28;20073;-81
2023/08/26 01:36:42;;;;;;;10.20;6.20;;;;;;;-142.57;32.10;115900.28;4993948;28;20026;-78
2023/08/26 01:39:13;;;;;;;7.93;5.82;;;;;;;-142.57;32.62;115900.28;4993843;28;20034;-77
2023/08/26 01:41:48;;;;;;;7.35;5.82;;;;;;;-142.57;32.60;115900.28;4993777;28;20045;-76
2023/08/26 01:44:14;;;;;;;14.10;6.05;;;;;;;-142.57;32.81;115900.28;4993936;28;20060;-78
2023/08/26 01:46:40;;;;;;;8.88;5.88;;;;;;;-142.57;32.67;115900.28;4993937;28;20109;-77
2023/08/26 01:49:06;;;;;;;7.55;5.80;;;;;;;-142.57;32.40;115900.28;4993718;28;20034;-78
2023/08/26 01:51:32;;;;;;;7.90;5.70;;;;;;;-142.57;32.27;115900.28;4993817;28;20045;-76
2023/08/26 01:53:58;;;;;;;9.05;5.85;;;;;;;-142.57;32.41;115900.28;4995322;28;20060;-77
2023/08/26 01:56:24;;;;;;;9.60;6.05;;;;;;;-142.57;32.73;115900.28;4992868;28;20510;-80
2023/08/26 01:58:50;;;;;;;7.43;5.53;;;;;;;-142.57;32.61;115900.28;4992593;28;20038;-81
2023/08/26 02:01:16;;;;;;;10.77;6.40;;;;;;;-142.57;32.28;115900.28;4993331;28;20118;-81
2023/08/26 02:03:42;;;;;;;9.82;5.70;;;;;;;-142.57;32.73;115900.28;4993062;28;20030;-79
2023/08/26 02:06:07;;;;;;;12.65;5.72;;;;;;;-142.57;32.53;115900.28;4992314;28;20030;-80
2023/08/26 02:08:33;;;;;;;18.95;5.88;;;;;;;-142.57;32.54;115900.28;4993756;28;20383;-76
2023/08/26 02:10:58;;;;;;;9.27;5.35;;;;;;;-142.57;32.65;115900.28;4993775;28;20042;-78
2023/08/26 02:13:25;;;;;;;8.40;5.60;;;;;;;-142.57;32.64;115900.28;4992651;28;20107;-82
2023/08/26 02:15:51;;;;;;;11.57;6.10;;;;;;;-142.57;32.54;115900.28;4992955;28;20032;-81
2023/08/26 02:18:17;;;;;;;10.00;6.20;;;;;;;-142.57;32.55;115900.28;4994888;28;20125;-81
2023/08/26 02:20:43;;;;;;;12.23;5.93;;;;;;;-142.57;33.00;115900.28;4993128;28;20081;-78
2023/08/26 02:23:11;;;;;;;16.92;5.68;;;;;;;-142.57;32.79;115900.28;4992263;28;20488;-79
2023/08/26 02:25:40;;;;;;;10.95;6.07;;;;;;;-142.57;32.59;115900.28;4993257;28;20364;-80
2023/08/26 02:28:06;;;;;;;8.82;5.60;;;;;;;-142.57;33.12;115900.28;4992691;28;20088;-78
2023/08/26 02:30:31;;;;;;;6.65;5.45;;;;;;;-142.57;33.50;115900.28;4988365;28;20090;-79
2023/08/26 02:32:57;;;;;;;9.25;5.38;;;;;;;-142.57;33.40;115900.28;5009546;28;20045;-79
2023/08/26 02:35:23;;;;;;;10.05;5.38;;;;;;;-142.57;33.33;115900.28;5009031;28;20057;-79
2023/08/26 02:37:49;;;;;;;8.27;5.68;;;;;;;-142.57;33.44;115900.28;5004891;28;20069;-78
2023/08/26 02:40:14;;;;;;;8.43;5.78;;;;;;;-142.57;33.70;115900.28;4993495;28;20491;-79
2023/08/26 02:42:40;;;;;;;10.57;5.90;;;;;;;-142.57;33.50;115900.28;4992178;28;20054;-79
2023/08/26 02:45:06;;;;;;;7.07;5.57;;;;;;;-142.57;33.33;115900.28;4992377;28;20045;-78
2023/08/26 02:47:31;;;;;;;9.70;5.47;;;;;;;-142.57;33.29;115900.28;4992409;28;20100;-79
2023/08/26 02:49:58;;;;;;;14.48;5.85;;;;;;;-142.57;33.19;115900.28;4992542;28;20046;-79
2023/08/26 02:52:23;;;;;;;10.70;6.53;;;;;;;-142.57;33.54;115900.28;4992758;28;20034;-79
2023/08/26 02:54:49;;;;;;;8.02;5.97;;;;;;;-142.57;33.59;115900.28;4993564;28;20078;-80
2023/08/26 02:57:14;;;;;;;9.48;6.10;;;;;;;-142.57;33.49;115900.28;4995298;28;20066;-79
2023/08/26 02:59:40;;;;;;;8.35;6.30;;;;;;;-142.57;34.46;115900.28;4979849;28;20189;-82
2023/08/26 03:02:06;;;;;;;11.25;6.72;;;;;;;-142.57;34.65;115900.28;4996400;28;20469;-80
2023/08/26 03:04:33;;;;;;;9.95;6.75;;;;;;;-142.57;34.85;115900.28;4995243;28;20039;-79
2023/08/26 03:06:59;;;;;;;10.82;7.03;;;;;;;-142.57;34.59;115900.28;4994585;28;20039;-77
2023/08/26 03:09:29;;;;;;;9.85;7.05;;;;;;;-142.57;34.51;115900.28;4996689;28;20041;-82
2023/08/26 03:11:58;;;;;;;11.05;7.50;;;;;;;-142.57;34.66;115900.28;4995223;28;20030;-79
2023/08/26 03:14:25;;;;;;;17.00;7.40;;;;;;;-142.57;34.30;115900.28;4995323;28;20081;-78
2023/08/26 03:16:51;;;;;;;9.45;6.50;;;;;;;-142.57;34.37;115900.28;4996262;28;20470;-82
2023/08/26 03:19:17;;;;;;;7.68;6.63;;;;;;;-142.57;34.34;115900.28;4995237;28;20053;-79
2023/08/26 03:21:43;;;;;;;9.73;6.13;;;;;;;-142.57;34.02;115900.28;4995365;28;20038;-80
2023/08/26 03:24:11;;;;;;;9.82;5.90;;;;;;;-142.57;34.06;115900.28;4996816;28;20034;-80
2023/08/26 03:26:37;;;;;;;18.75;5.78;;;;;;;-142.57;34.21;115900.28;4995451;28;20562;-79
2023/08/26 03:29:03;;;;;;;14.05;6.10;;;;;;;-142.57;34.34;115900.28;4996209;28;20030;-79
2023/08/26 03:31:28;;;;;;;11.52;5.88;;;;;;;-142.57;34.47;115900.28;4994989;28;20146;-79
2023/08/26 03:33:56;;;;;;;8.15;5.28;;;;;;;-142.57;34.64;115900.28;4994770;28;20085;-79
2023/08/26 03:36:22;;;;;;;6.88;5.88;;;;;;;-142.57;34.75;115900.28;4996024;28;20419;-79
2023/08/26 03:38:47;;;;;;;8.02;5.63;;;;;;;-142.57;34.72;115900.28;4990111;28;20479;-78
2023/08/26 03:41:13;;;;;;;7.57;5.70;;;;;;;-142.57;34.64;115900.28;4977206;28;20070;-81
2023/08/26 03:43:39;;;;;;;8.13;5.75;;;;;;;-142.57;34.33;115900.28;4974750;28;20035;-80
2023/08/26 03:46:05;;;;;;;7.00;5.40;;;;;;;-142.57;34.47;115900.28;4974910;28;20503;-80
2023/08/26 03:48:33;;;;;;;10.18;5.88;;;;;;;-142.57;34.39;115900.28;4975189;28;20035;-77
2023/08/26 03:50:58;;;;;;;9.18;6.22;;;;;;;-142.57;34.64;115900.28;4976604;28;20038;-79
2023/08/26 03:53:24;;;;;;;7.53;5.50;;;;;;;-142.57;34.66;115900.28;4976384;28;20105;-81
2023/08/26 03:55:50;;;;;;;8.40;6.43;;;;;;;-142.57;34.65;115900.28;4977190;28;20031;-79
2023/08/26 03:58:16;;;;;;;9.98;5.55;;;;;;;-142.57;34.73;115900.28;4976264;28;20031;-78
2023/08/26 04:00:42;;;;;;;9.02;5.78;;;;;;;-142.57;35.13;115900.28;4976557;28;20385;-80
2023/08/26 04:03:11;;;;;;;9.23;5.93;;;;;;;-142.57;35.11;115900.28;4976551;28;20030;-78
2023/08/26 04:05:37;;;;;;;11.00;5.85;;;;;;;-142.57;35.30;115900.28;4974961;28;20165;-80
2023/08/26 04:08:03;;;;;;;14.15;6.25;;;;;;;-142.57;35.22;115900.28;4976312;28;20117;-80
2023/08/26 04:10:29;;;;;;;11.88;5.97;;;;;;;-142.57;35.25;115900.28;4973651;28;20043;-79
2023/08/26 04:13:01;;;;;;;10.38;5.63;;;;;;;-142.57;35.36;115900.28;4974302;28;20054;-81
2023/08/26 04:15:27;;;;;;;8.07;5.50;;;;;;;-142.57;35.26;115900.28;4958354;28;20507;-78
2023/08/26 04:17:52;;;;;;;10.57;6.13;;;;;;;-142.57;35.32;115900.28;4975660;28;20042;-80
2023/08/26 04:20:18;;;;;;;8.45;6.07;;;;;;;-142.57;35.65;115900.28;4975391;28;20035;-80
2023/08/26 04:22:43;;;;;;;11.30;6.47;;;;;;;-142.57;35.73;115900.28;4974155;28;20125;-80
2023/08/26 04:25:09;;;;;;;8.25;5.72;;;;;;;-142.57;35.75;115900.28;4975856;28;20033;-80
2023/08/26 04:27:35;;;;;;;9.90;5.70;;;;;;;-142.57;35.61;115900.28;4975337;28;20027;-80
2023/08/26 04:30:01;;;;;;;7.18;5.95;;;;;;;-142.57;35.67;115900.28;4975394;28;20071;-80
2023/08/26 04:32:29;;;;;;;12.23;6.10;;;;;;;-142.57;35.56;115900.28;4975481;28;20097;-83
2023/08/26 04:34:54;;;;;;;13.07;6.03;;;;;;;-142.57;35.50;115900.28;4974393;28;20035;-79
2023/08/26 04:37:23;;;;;;;16.17;6.53;;;;;;;-142.57;35.41;115900.28;4973924;28;20544;-79
2023/08/26 04:39:50;;;;;;;9.65;5.63;;;;;;;-142.57;35.75;115900.28;4974238;28;20045;-81
2023/08/26 04:42:16;;;;;;;7.55;5.93;;;;;;;-142.57;35.46;115900.28;4974086;28;20053;-82
2023/08/26 04:44:41;;;;;;;6.60;5.60;;;;;;;-142.57;35.35;115900.28;4974676;28;20042;-79
2023/08/26 04:47:07;;;;;;;7.72;5.43;;;;;;;-142.57;35.11;115900.28;4974287;28;20039;-78
2023/08/26 04:49:32;;;;;;;8.50;5.78;;;;;;;-142.57;34.19;115900.28;4974091;28;20030;-81
2023/08/26 04:51:59;;;;;;;11.40;5.38;;;;;;;-142.57;34.40;115900.28;4973760;28;20183;-83
2023/08/26 04:54:25;;;;;;;15.18;6.07;;;;;;;-142.57;34.33;115900.28;4973724;28;20046;-79
2023/08/26 04:56:50;;;;;;;9.70;5.88;;;;;;;-142.57;34.80;115900.28;4957679;28;20038;-80
2023/08/26 04:59:17;;;;;;;9.93;5.80;;;;;;;-142.57;34.77;115900.28;4973809;28;20045;-82
2023/08/26 05:01:42;;;;;;;11.43;6.45;;;;;;;-142.57;35.16;115900.28;4974946;28;20078;-80
2023/08/26 05:04:08;;;;;;;12.57;7.32;;;;;;;-142.57;35.20;115900.28;4973611;28;20539;-82
2023/08/26 05:06:34;;;;;;;13.27;6.85;;;;;;;-142.57;35.61;115900.28;4974291;28;20034;-82
2023/08/26 05:08:59;;;;;;;10.07;6.50;;;;;;;-142.57;35.80;115900.28;4973627;28;20483;-81
2023/08/26 05:11:25;;;;;;;11.75;6.80;;;;;;;-142.57;35.50;115900.28;4973754;28;20094;-80
2023/08/26 05:13:50;;;;;;;13.00;6.80;;;;;;;-142.57;35.73;115900.28;4974123;28;20025;-80
2023/08/26 05:16:16;;;;;;;10.82;6.70;;;;;;;-142.57;35.46;115900.28;4975269;28;20391;-81
2023/08/26 05:18:42;;;;;;;12.38;7.20;;;;;;;-142.57;35.44;115900.28;4973779;28;20121;-83
2023/08/26 05:21:10;;;;;;;18.02;6.90;;;;;;;-142.57;34.98;115900.28;4973354;28;20039;-83
2023/08/26 05:23:36;;;;;;;10.98;6.80;;;;;;;-142.57;35.02;115900.28;4973635;28;20130;-81
2023/08/26 05:26:03;;;;;;;12.40;7.38;;;;;;;-142.57;34.68;115900.28;4974176;28;20027;-81
2023/08/26 05:28:28;;;;;;;14.30;6.95;;;;;;;-142.57;34.55;115900.28;4978656;28;20033;-82
2023/08/26 05:30:54;;;;;;;12.18;6.55;;;;;;;-142.57;34.10;115900.28;4975376;28;20129;-80
2023/08/26 05:33:20;;;;;;;12.45;6.60;;;;;;;-142.57;33.74;115900.28;4973993;28;20480;-81
2023/08/26 05:35:46;;;;;;;11.43;6.45;;;;;;;-142.57;33.52;115900.28;4973571;28;20030;-82
2023/08/26 05:38:12;;;;;;;14.50;6.60;;;;;;;-142.57;33.37;115900.28;4974637;28;20031;-83
2023/08/26 05:40:37;;;;;;;11.43;6.53;;;;;;;-142.57;31.79;115900.28;4993788;28;20057;-88
2023/08/26 05:43:04;;;;;;;13.90;6.60;;;;;;;-142.57;30.97;115900.28;4997541;28;20157;-89
2023/08/26 05:45:31;;;;;;;9.02;6.45;;;;;;;-142.57;32.42;115900.28;4995361;28;20061;-84
2023/08/26 05:47:58;;;;;;;12.60;6.18;;;;;;;-142.57;30.95;115900.28;4995088;28;20030;-84
2023/08/26 05:50:23;;;;;;;12.15;5.63;;;;;;;-142.57;30.21;115900.28;4977083;28;20038;-83
2023/08/26 05:52:49;;;;;;;12.00;6.07;;;;;;;-142.57;30.26;115900.28;4992974;28;20034;-88
2023/08/26 05:55:14;;;;;;;12.27;5.63;;;;;;;-142.57;30.43;115900.28;4993644;28;20065;-83
2023/08/26 05:57:43;;;;;;;17.25;5.40;;;;;;;-142.57;29.94;115900.28;4997671;28;20033;-90
2023/08/26 06:00:09;;;;;;;13.55;5.47;;;;;;;-142.57;30.56;115900.28;4979674;28;20023;-84
2023/08/26 06:02:42;;;;;;;8.80;5.55;;;;;;;-142.57;30.41;115900.28;4995546;28;20098;-89
2023/08/26 06:05:08;;;;;;;9.82;4.47;;;;;;;-142.57;29.48;115900.28;4995204;28;20072;-84
2023/08/26 06:07:34;;;;;;;19.95;5.57;;;;;;;-142.57;30.14;115900.28;4978780;28;20035;-86
2023/08/26 06:10:01;;;;;;;11.75;5.13;;;;;;;-142.57;30.06;115900.28;4994056;28;20065;-85
2023/08/26 06:12:26;;;;;;;12.25;5.20;;;;;;;-142.57;29.12;115900.28;4997986;28;20022;-84
2023/08/26 06:14:52;;;;;;;8.90;4.65;;;;;;;-142.57;29.83;115900.28;4995526;28;20072;-84
2023/08/26 06:17:17;;;;;;;21.13;5.75;;;;;;;-142.57;30.63;115900.28;4996862;28;20034;-85
2023/08/26 06:19:43;;;;;;;9.73;5.30;;;;;;;-142.57;31.15;115900.28;4994778;28;20045;-84
2023/08/26 06:22:08;;;;;;;9.02;5.03;;;;;;;-142.57;30.97;115900.28;4996608;28;20082;-83
2023/08/26 06:24:35;;;;;;;12.40;4.90;;;;;;;-142.57;31.50;115900.28;4994517;28;20027;-82
2023/08/26 06:27:00;;;;;;;9.13;4.95;;;;;;;-142.57;31.99;115900.28;4994472;28;20457;-82
2023/08/26 06:29:26;;;;;;;13.25;4.85;;;;;;;-142.57;32.10;115900.28;4993397;28;20046;-83
2023/08/26 06:31:52;;;;;;;14.70;5.45;;;;;;;-142.57;31.83;115900.28;4993939;28;20149;-84
2023/08/26 06:34:18;;;;;;;13.38;5.00;;;;;;;-142.57;30.34;115900.28;4995014;28;20037;-84
2023/08/26 06:36:50;;;;;;;8.52;4.82;;;;;;;-142.57;30.85;115900.28;4999061;28;20117;-89
2023/08/26 06:39:15;;;;;;;12.45;5.20;;;;;;;-142.57;30.37;115900.28;4982600;28;20037;-86
2023/08/26 06:41:41;;;;;;;11.02;4.70;;;;;;;-142.57;31.20;115900.28;4997733;28;20038;-84
2023/08/26 06:44:07;;;;;;;16.48;5.57;;;;;;;-142.57;30.56;115900.28;4982011;28;20509;-83
2023/08/26 06:46:33;;;;;;;18.38;5.80;;;;;;;-142.57;30.82;115900.28;4997166;28;20428;-84
2023/08/26 06:48:59;;;;;;;7.22;5.20;;;;;;;-142.57;30.78;115900.28;4997130;28;20557;-80
2023/08/26 06:51:24;;;;;;;15.57;5.68;;;;;;;-142.57;30.41;115900.28;4998215;28;20038;-83
2023/08/26 06:53:50;;;;;;;13.38;5.18;;;;;;;-142.57;30.01;115900.28;4998315;28;20038;-83
2023/08/26 06:56:16;;;;;;;11.95;5.60;;;;;;;-142.57;29.57;115900.28;4998702;28;20061;-85
2023/08/26 06:58:42;;;;;;;6.70;5.00;;;;;;;-142.57;30.04;115900.28;5002982;28;20022;-86
2023/08/26 07:01:10;;;;;;;7.93;5.47;;;;;;;-142.57;29.92;115900.28;5000332;28;20124;-87
2023/08/26 07:03:38;;;;;;;7.72;5.53;;;;;;;-142.57;29.81;115900.28;5001449;28;20030;-88
2023/08/26 07:06:04;;;;;;;9.75;4.97;;;;;;;-142.57;29.26;115900.28;5004468;28;20388;-88
2023/08/26 07:08:31;;;;;;;9.68;5.03;;;;;;;-142.57;28.92;115900.28;5004356;28;20487;-87
2023/08/26 07:10:56;;;;;;;14.77;5.45;;;;;;;-142.57;28.40;115900.28;5005130;28;20040;-85
2023/08/26 07:13:21;;;;;;;10.27;4.82;;;;;;;-142.57;28.98;115900.28;5001619;28;20549;-86
2023/08/26 07:15:50;;;;;;;11.45;4.90;;;;;;;-142.57;29.18;115900.28;5003129;28;20042;-82
2023/08/26 07:18:15;;;;;;;7.97;4.30;;;;;;;-142.57;27.74;115900.28;4998361;28;20034;-84
2023/08/26 07:20:43;;;;;;;7.28;4.30;;;;;;;-142.57;28.04;115900.28;4998131;28;20122;-83
2023/08/26 07:23:09;;;;;;;5.88;3.67;;;;;;;-142.57;28.45;115900.28;4996425;28;20023;-84
2023/08/26 07:25:35;;;;;;;7.38;4.30;;;;;;;-142.57;27.92;115900.28;5001141;28;20142;-80
2023/08/26 07:28:00;;;;;;;5.60;4.00;;;;;;;-142.57;27.83;115900.28;5016115;28;20045;-88
2023/08/26 07:30:26;;;;;;;7.68;2.90;;;;;;;-142.57;26.18;115900.28;5015015;28;20046;-80
2023/08/26 07:32:53;;;;;;;11.45;3.38;;;;;;;-142.57;27.49;115900.28;5000276;28;20042;-82
2023/08/26 07:35:19;;;;;;;8.68;3.65;;;;;;;-142.57;27.25;115900.28;4999026;28;20022;-87
2023/08/26 07:37:44;;;;;;;6.40;3.08;;;;;;;-142.57;27.11;115900.28;5001242;28;20034;-88
2023/08/26 07:40:14;;;;;;;6.38;3.40;;;;;;;-142.57;27.56;115900.28;5002124;28;20026;-84
2023/08/26 07:42:41;;;;;;;9.20;3.25;;;;;;;-142.57;27.71;115900.28;4998328;28;20205;-89
2023/08/26 07:45:08;;;;;;;5.28;3.55;;;;;;;-142.57;27.28;115900.28;5002701;28;20054;-88
2023/08/26 07:47:34;;;;;;;11.93;4.20;;;;;;;-142.57;27.41;115900.28;5003022;28;20026;-84
2023/08/26 07:49:59;;;;;;;9.70;5.75;;;;;;;-142.57;28.23;115900.28;4991214;28;20475;-90
2023/08/26 07:52:25;;;;;;;11.00;5.30;;;;;;;-142.57;28.01;115900.28;5003045;28;20117;-88
2023/08/26 07:54:53;;;;;;;20.52;5.53;;;;;;;-142.57;28.00;115900.28;5001089;28;20085;-86
2023/08/26 07:57:19;;;;;;;14.98;5.13;;;;;;;-142.57;27.65;115900.28;5000147;28;20037;-84
2023/08/26 07:59:44;;;;;;;20.08;5.90;;;;;;;-142.57;27.52;115900.28;4998969;28;20384;-81
2023/08/26 08:02:12;;;;;;;13.38;4.78;;;;;;;-142.57;27.48;115900.28;5001467;28;20130;-81
2023/08/26 08:04:38;;;;;;;13.75;5.00;;;;;;;-142.57;27.30;115900.28;5007573;28;20034;-85
2023/08/26 08:07:04;;;;;;;12.13;4.88;;;;;;;-142.57;26.74;115900.28;5006262;28;20034;-86
2023/08/26 08:09:30;;;;;;;9.40;4.78;;;;;;;-142.57;26.85;115900.28;5011303;28;20013;-84
2023/08/26 08:11:56;;;;;;;8.52;4.57;;;;;;;-142.57;26.84;115900.28;4999879;28;20077;-83
2023/08/26 08:14:21;;;;;;;10.50;4.80;;;;;;;-142.57;26.36;115900.28;5000971;28;20487;-84
2023/08/26 08:16:47;;;;;;;7.70;4.55;;;;;;;-142.57;26.12;115900.28;5003467;28;20038;-87
2023/08/26 08:19:13;;;;;;;7.38;4.25;;;;;;;-142.57;26.25;115900.28;5000056;28;20034;-84
2023/08/26 08:21:39;;;;;;;13.05;5.03;;;;;;;-142.57;26.09;115900.28;4998719;28;20026;-84
2023/08/26 08:24:04;;;;;;;8.70;4.72;;;;;;;-142.57;25.99;115900.28;4998699;28;20037;-83
2023/08/26 08:26:32;;;;;;;11.88;5.28;;;;;;;-142.57;25.66;115900.28;4995156;28;20084;-86
2023/08/26 08:28:58;;;;;;;6.28;4.22;;;;;;;-142.57;25.63;115900.28;4994768;28;20078;-80
2023/08/26 08:31:24;;;;;;;10.10;3.70;;;;;;;-142.57;25.06;115900.28;4995799;28;20096;-85
2023/08/26 08:33:49;;;;;;;8.50;4.10;;;;;;;-142.57;24.85;115900.28;4995917;28;20035;-85
2023/08/26 08:36:14;;;;;;;10.73;4.20;;;;;;;-142.57;24.45;115900.28;4994981;28;20066;-85
2023/08/26 08:38:40;;;;;;;7.97;4.20;;;;;;;-142.57;24.34;115900.28;4996172;28;20113;-82
2023/08/26 08:41:06;;;;;;;9.55;4.07;;;;;;;-142.57;24.84;115900.28;4995635;28;20137;-82
2023/08/26 08:43:37;;;;;;;9.65;4.00;;;;;;;-142.57;25.01;115900.28;4994837;28;20039;-83
2023/08/26 08:46:06;;;;;;;8.57;3.90;;;;;;;-142.57;24.62;115900.28;4994192;28;20045;-85
2023/08/26 08:48:35;;;;;;;10.27;4.28;;;;;;;-142.57;25.23;115900.28;4998128;28;20033;-83
2023/08/26 08:51:03;;;;;;;8.77;4.35;;;;;;;-142.57;25.40;115900.28;4996025;28;20080;-83
2023/08/26 08:53:32;;;;;;;6.72;4.18;;;;;;;-142.57;25.34;115900.28;4995980;28;20496;-80
2023/08/26 08:56:00;;;;;;;6.15;4.50;;;;;;;-142.57;25.56;115900.28;4995573;28;20030;-86
2023/08/26 08:58:29;;;;;;;11.70;4.60;;;;;;;-142.57;25.43;115900.28;4997375;28;20581;-88
2023/08/26 09:00:57;;;;;;;8.82;5.40;;;;;;;-142.57;25.10;115900.28;4996115;28;20491;-87
2023/08/26 09:03:24;;;;;;;10.98;4.60;;;;;;;-142.57;25.09;115900.28;5003468;28;20459;-88
2023/08/26 09:05:53;;;;;;;7.15;4.50;;;;;;;-142.57;25.14;115900.28;5002434;28;20030;-86
2023/08/26 09:08:20;;;;;;;11.50;4.00;;;;;;;-142.57;25.79;115900.28;5003368;28;20073;-88
2023/08/26 09:10:49;;;;;;;11.63;4.55;;;;;;;-142.57;25.23;115900.28;5006198;28;20196;-89
2023/08/26 09:13:14;;;;;;;7.70;4.20;;;;;;;-142.57;25.40;115900.28;5003684;28;20108;-91
2023/08/26 09:15:40;;;;;;;9.68;4.10;;;;;;;-142.57;25.25;115900.28;4997809;28;20078;-89
2023/08/26 09:18:12;;;;;;;11.52;4.13;;;;;;;-142.57;24.53;115900.28;5001761;28;20046;-91
2023/08/26 09:20:44;;;;;;;11.35;4.75;;;;;;;-142.57;24.46;115900.28;5015933;28;20030;-94
2023/08/26 09:23:09;;;;;;;9.55;3.60;;;;;;;-142.57;24.47;115900.28;5014538;28;20077;-88
2023/08/26 09:25:35;;;;;;;11.43;4.05;;;;;;;-142.57;25.45;115900.28;4996378;28;20022;-83
2023/08/26 09:28:02;;;;;;;9.10;4.28;;;;;;;-142.57;25.10;115900.28;5007381;28;20039;-84
2023/08/26 09:30:28;;;;;;;6.72;4.03;;;;;;;-142.57;25.24;115900.28;4999212;28;20050;-84
2023/08/26 09:32:55;;;;;;;9.40;4.15;;;;;;;-142.57;25.32;115900.28;4996494;28;20042;-86
2023/08/26 09:35:21;;;;;;;9.15;4.63;;;;;;;-142.57;25.22;115900.28;4995853;28;20022;-87
2023/08/26 09:37:48;;;;;;;12.77;4.10;;;;;;;-142.57;25.61;115900.28;4996329;28;20217;-87
2023/08/26 09:40:18;;;;;;;7.05;4.10;;;;;;;-142.57;24.81;115900.28;4999217;28;20034;-87
2023/08/26 09:42:44;;;;;;;9.60;4.13;;;;;;;-142.57;24.95;115900.28;4984183;28;20093;-85
2023/08/26 09:45:13;;;;;;;7.53;3.72;;;;;;;-142.57;25.04;115900.28;4976079;28;20043;-83
2023/08/26 09:47:39;;;;;;;9.68;3.67;;;;;;;-142.57;24.65;115900.28;4974461;28;20023;-82
2023/08/26 09:50:07;;;;;;;8.20;3.80;;;;;;;-142.57;24.13;115900.28;4974302;28;20035;-83
2023/08/26 09:52:46;;;;;;;5.68;3.70;;;;;;;-142.57;24.41;115900.28;4976241;28;20064;-83
2023/08/26 09:55:12;;;;;;;7.38;4.68;;;;;;;-142.57;24.60;115900.28;4974942;28;20058;-82
2023/08/26 09:57:38;;;;;;;8.30;3.55;;;;;;;-142.57;24.63;115900.28;4992208;28;20042;-84
2023/08/26 10:00:10;;;;;;;4.38;3.42;;;;;;;-142.57;24.47;115900.28;4993887;28;20488;-82
2023/08/26 10:02:48;;;;;;;8.40;3.78;;;;;;;-142.57;24.63;115900.28;4994253;28;20042;-85
2023/08/26 10:05:19;;;;;;;9.65;5.25;;;;;;;-142.57;25.21;115900.28;4993858;28;20058;-83
2023/08/26 10:07:47;;;;;;;19.90;6.93;;;;;;;-142.57;25.72;115900.28;4993856;28;20034;-84
2023/08/26 10:10:48;;;;;;;14.73;6.55;;;;;;;-142.57;25.83;115900.28;4997501;28;20026;-83
2023/08/26 10:13:19;;;;;;;14.43;7.63;;;;;;;-142.57;25.48;115900.28;5014826;28;20486;-83
2023/08/26 10:15:48;;;;;;;15.93;7.63;;;;;;;-142.57;25.28;115900.28;5016509;28;20033;-87
2023/08/26 10:18:39;;;;;;;14.50;7.00;;;;;;;-142.57;25.62;115900.28;5020779;28;20045;-81
2023/08/26 10:21:05;;;;;;;21.63;7.17;;;;;;;-142.57;25.50;115900.28;5017516;28;20463;-84
2023/08/26 10:23:32;;;;;;;10.85;6.57;;;;;;;-142.57;25.11;115900.28;5017489;28;20553;-88
2023/08/26 10:25:58;;;;;;;16.55;6.47;;;;;;;-142.57;24.41;115900.28;5019378;28;20052;-85
2023/08/26 10:28:25;;;;;;;11.52;5.70;;;;;;;-142.57;24.80;115900.28;5020335;28;20093;-82
2023/08/26 10:30:53;;;;;;;15.45;6.72;;;;;;;-142.57;24.50;115900.28;5017543;28;20038;-83
2023/08/26 10:33:19;;;;;;;9.98;7.18;;;;;;;-142.57;24.86;115900.28;5017624;28;20045;-85
2023/08/26 10:36:11;;;;;;;14.27;6.50;;;;;;;-142.57;24.53;115900.28;5017397;28;20034;-85
2023/08/26 10:38:39;;;;;;;13.15;6.82;;;;;;;-142.57;24.90;115900.28;5017061;28;20038;-85
2023/08/26 10:41:12;;;;;;;12.18;6.32;;;;;;;-142.57;25.16;115900.28;5016679;28;20442;-82
2023/08/26 10:43:50;;;;;;;21.58;7.10;;;;;;;-142.57;24.96;115900.28;5016904;28;20367;-81
2023/08/26 10:46:15;;;;;;;10.32;6.20;;;;;;;-142.57;24.67;115900.28;5016807;28;20038;-81
2023/08/26 10:48:55;;;;;;;18.50;6.93;;;;;;;-142.57;25.07;115900.28;5015131;28;20061;-82
2023/08/26 10:51:20;;;;;;;14.70;7.18;;;;;;;-142.57;25.34;115900.28;5020328;28;20044;-81
2023/08/26 10:53:48;;;;;;;10.07;6.43;;;;;;;-142.57;25.32;115900.28;5016741;28;20558;-84
2023/08/26 10:56:18;;;;;;;15.07;6.47;;;;;;;-142.57;25.56;115900.28;5016591;28;20038;-82
2023/08/26 10:58:47;;;;;;;12.80;7.00;;;;;;;-142.57;25.36;115900.28;5016247;28;20602;-83
2023/08/26 11:01:14;;;;;;;12.73;6.10;;;;;;;-142.57;25.45;115900.28;5016395;28;20380;-85
2023/08/26 11:03:40;;;;;;;11.95;5.97;;;;;;;-142.57;24.92;115900.28;5017002;28;20076;-85